Time;durP1;ratioP1;P1;durP2;ratioP2;P2;SDS_P1;SDS_P2;PMS_P1;PMS_P2;Temp;Humidity;BMP_temperature;BMP_pressure;BME280_temperature;BME280_humidity;BME280_pressure;Samples;Min_cycle;Max_cycle;Signal;HPM_P1;HPM_P2
2024/01/16 00:04:06;;;;;;;2.73;2.50;;;3.20;37.70;;;;;;10365079;28;20285;-71
2024/01/16 00:09:10;;;;;;;3.00;2.37;;;3.20;37.70;;;;;;10365519;28;20270;-71
2024/01/16 00:14:15;;;;;;;3.37;2.67;;;3.20;37.60;;;;;;10365227;28;20234;-70
2024/01/16 00:19:18;;;;;;;3.23;2.80;;;3.10;37.50;;;;;;10364525;28;20238;-71
2024/01/16 00:24:22;;;;;;;2.63;2.43;;;3.20;37.60;;;;;;10364685;28;20608;-70
2024/01/16 00:29:26;;;;;;;3.43;2.60;;;3.20;37.50;;;;;;10364555;28;20222;-70
2024/01/16 00:34:29;;;;;;;3.00;2.40;;;3.20;37.50;;;;;;10364321;28;20246;-71
2024/01/16 00:39:33;;;;;;;2.80;2.50;;;3.20;37.50;;;;;;10360385;28;20230;-71
2024/01/16 00:44:38;;;;;;;3.50;2.27;;;3.20;37.60;;;;;;10364208;28;20226;-71
2024/01/16 00:49:41;;;;;;;3.20;2.20;;;3.20;37.70;;;;;;10364225;28;20235;-71
2024/01/16 00:54:45;;;;;;;2.77;2.40;;;3.20;37.70;;;;;;10363790;28;20249;-71
2024/01/16 00:59:49;;;;;;;2.63;2.43;;;3.20;37.50;;;;;;10364302;28;20317;-70
2024/01/16 01:04:53;;;;;;;3.97;2.70;;;3.40;37.50;;;;;;10363680;28;20245;-71
2024/01/16 01:09:56;;;;;;;3.10;2.50;;;3.30;37.40;;;;;;10366760;28;20287;-71
2024/01/16 01:15:01;;;;;;;3.13;2.60;;;3.30;37.40;;;;;;10368392;28;20236;-71
2024/01/16 01:20:05;;;;;;;2.77;2.50;;;3.30;37.40;;;;;;10363411;28;20234;-70
2024/01/16 01:25:10;;;;;;;3.57;2.60;;;3.40;37.30;;;;;;10363450;28;20321;-71
2024/01/16 01:30:15;;;;;;;3.93;2.70;;;3.40;37.00;;;;;;10365297;28;20666;-71
2024/01/16 01:35:19;;;;;;;4.10;2.63;;;3.40;36.90;;;;;;10371653;28;20230;-71
2024/01/16 01:40:23;;;;;;;2.93;2.50;;;3.30;36.70;;;;;;10371041;28;20236;-70
2024/01/16 01:45:27;;;;;;;3.17;2.80;;;3.20;36.80;;;;;;10370616;28;20240;-71
2024/01/16 01:50:30;;;;;;;2.93;2.63;;;3.10;36.60;;;;;;10370463;28;20238;-71
2024/01/16 01:55:33;;;;;;;3.70;2.83;;;3.00;36.80;;;;;;10370515;28;20639;-71
2024/01/16 02:00:38;;;;;;;4.63;2.73;;;3.00;36.80;;;;;;10363721;28;20230;-71
2024/01/16 02:05:43;;;;;;;2.77;2.40;;;2.80;36.60;;;;;;10362474;28;20288;-71
2024/01/16 02:10:50;;;;;;;3.10;2.57;;;2.70;37.00;;;;;;10369593;28;20241;-71
2024/01/16 02:15:54;;;;;;;3.43;2.83;;;2.60;36.90;;;;;;10369389;28;20313;-71
2024/01/16 02:21:02;;;;;;;2.70;2.50;;;2.50;37.20;;;;;;10369228;28;20230;-71
2024/01/16 02:26:07;;;;;;;2.70;2.40;;;2.50;37.20;;;;;;10368818;28;20309;-71
2024/01/16 02:31:10;;;;;;;2.57;2.37;;;2.50;37.40;;;;;;10369054;28;20312;-70
2024/01/16 02:36:13;;;;;;;2.57;2.37;;;2.40;37.40;;;;;;10368841;28;20693;-71
2024/01/16 02:41:18;;;;;;;4.27;2.37;;;2.50;37.40;;;;;;10367936;28;20230;-70
2024/01/16 02:46:21;;;;;;;2.60;2.40;;;2.50;37.40;;;;;;10368472;28;20245;-71
2024/01/16 02:51:24;;;;;;;2.97;2.63;;;2.50;37.40;;;;;;10368384;28;20256;-70
2024/01/16 02:56:29;;;;;;;2.23;2.07;;;2.40;37.30;;;;;;10368228;28;20222;-71
2024/01/16 03:01:33;;;;;;;2.97;2.50;;;2.40;38.00;;;;;;10367886;28;20233;-71
2024/01/16 03:06:36;;;;;;;2.90;2.57;;;2.40;37.30;;;;;;10367462;28;20731;-71
2024/01/16 03:11:41;;;;;;;3.00;2.50;;;2.40;37.30;;;;;;10367706;28;20586;-70
2024/01/16 03:16:45;;;;;;;3.40;2.67;;;2.40;37.30;;;;;;10367325;28;20615;-71
2024/01/16 03:21:49;;;;;;;2.90;2.30;;;2.40;37.20;;;;;;10359106;28;20281;-71
2024/01/16 03:26:53;;;;;;;3.07;1.97;;;2.40;37.20;;;;;;10366784;28;20241;-71
2024/01/16 03:31:56;;;;;;;3.17;2.43;;;2.30;37.20;;;;;;10366288;28;20768;-71
2024/01/16 03:37:00;;;;;;;2.87;2.30;;;2.30;37.20;;;;;;10366248;28;20305;-70
2024/01/16 03:42:04;;;;;;;3.83;2.63;;;2.30;37.20;;;;;;10366406;28;20721;-71
2024/01/16 03:47:08;;;;;;;3.93;2.70;;;2.20;37.20;;;;;;10365758;28;20269;-71
2024/01/16 03:52:12;;;;;;;2.13;2.00;;;2.20;37.20;;;;;;10366295;28;20222;-71
2024/01/16 03:57:16;;;;;;;2.50;2.03;;;2.20;36.90;;;;;;10362653;28;20240;-70
2024/01/16 04:02:19;;;;;;;2.63;2.43;;;2.20;36.60;;;;;;10355351;28;20313;-71
2024/01/16 04:07:26;;;;;;;3.23;2.60;;;2.10;36.60;;;;;;10365596;28;20665;-71
2024/01/16 04:12:30;;;;;;;2.87;2.30;;;2.00;36.40;;;;;;10365397;28;20232;-70
2024/01/16 04:17:33;;;;;;;3.73;2.10;;;1.80;36.50;;;;;;10381795;28;20227;-71
2024/01/16 04:22:37;;;;;;;2.83;2.37;;;1.70;36.50;;;;;;10364869;28;20580;-71
2024/01/16 04:27:42;;;;;;;2.43;2.20;;;1.50;36.40;;;;;;10364860;28;20238;-71
2024/01/16 04:32:45;;;;;;;2.30;2.10;;;1.40;36.40;;;;;;10364598;28;20242;-70
2024/01/16 04:37:48;;;;;;;3.13;2.10;;;1.30;36.50;;;;;;10364449;28;20230;-71
2024/01/16 04:42:53;;;;;;;2.63;2.43;;;1.20;36.50;;;;;;10364091;28;20237;-71
2024/01/16 04:47:56;;;;;;;6.27;3.77;;;1.10;36.40;;;;;;10358685;28;20317;-70
2024/01/16 04:53:00;;;;;;;4.80;4.00;;;1.10;36.50;;;;;;10363794;28;20230;-71
2024/01/16 04:58:05;;;;;;;3.63;2.83;;;1.00;36.40;;;;;;10363504;28;20222;-71
2024/01/16 05:03:09;;;;;;;3.87;2.50;;;1.00;36.20;;;;;;10363579;28;20242;-71
2024/01/16 05:08:12;;;;;;;3.90;2.60;;;0.90;36.20;;;;;;10369877;28;20276;-71
2024/01/16 05:13:17;;;;;;;3.43;2.57;;;0.80;36.20;;;;;;10371801;28;20272;-71
2024/01/16 05:18:20;;;;;;;3.63;3.27;;;0.70;36.20;;;;;;10371351;28;20233;-71
2024/01/16 05:23:24;;;;;;;5.73;4.20;;;0.70;36.40;;;;;;10371495;28;20612;-71
2024/01/16 05:28:28;;;;;;;11.47;6.77;;;0.60;36.50;;;;;;10371214;28;20276;-71
2024/01/16 05:33:32;;;;;;;7.97;5.37;;;0.60;36.50;;;;;;10370508;28;20720;-71
2024/01/16 05:38:37;;;;;;;10.83;7.00;;;0.60;36.60;;;;;;10367467;28;20230;-71
2024/01/16 05:43:42;;;;;;;19.50;13.80;;;0.60;36.40;;;;;;10370239;28;20313;-71
2024/01/16 05:48:46;;;;;;;7.57;5.80;;;0.70;36.40;;;;;;10363917;28;20237;-70
2024/01/16 05:53:50;;;;;;;11.30;9.00;;;0.80;36.40;;;;;;10349408;28;20667;-70
2024/01/16 05:58:55;;;;;;;14.73;11.77;;;0.70;36.20;;;;;;10355242;28;20900;-71
2024/01/16 06:03:58;;;;;;;7.30;5.40;;;0.70;36.20;;;;;;10361094;28;20237;-71
2024/01/16 06:09:05;;;;;;;5.63;4.47;;;0.70;36.20;;;;;;10356166;28;20237;-69
2024/01/16 06:14:09;;;;;;;5.10;4.60;;;0.70;36.30;;;;;;10359262;28;20313;-70
2024/01/16 06:19:13;;;;;;;5.50;4.17;;;0.50;36.10;;;;;;10356707;28;20242;-70
2024/01/16 06:24:16;;;;;;;5.53;4.40;;;0.50;36.20;;;;;;10350433;28;20321;-70
2024/01/16 06:29:21;;;;;;;4.73;4.10;;;0.40;36.10;;;;;;10356131;28;20223;-70
2024/01/16 06:34:37;;;;;;;4.20;3.80;;;0.30;36.30;;;;;;10355993;28;20230;-70
2024/01/16 06:39:40;;;;;;;5.53;4.30;;;0.30;36.40;;;;;;10353320;28;20222;-70
2024/01/16 06:44:44;;;;;;;8.93;6.67;;;0.20;36.50;;;;;;10355545;28;20226;-70
2024/01/16 06:49:47;;;;;;;5.13;4.63;;;0.20;36.30;;;;;;10352791;28;20225;-70
2024/01/16 06:54:51;;;;;;;4.00;3.60;;;0.30;36.50;;;;;;10351534;28;20288;-71
2024/01/16 06:59:55;;;;;;;3.53;3.23;;;0.30;36.50;;;;;;10350061;28;20775;-71
2024/01/16 07:04:59;;;;;;;4.23;3.57;;;0.40;36.30;;;;;;10357520;28;20780;-71
2024/01/16 07:10:03;;;;;;;4.47;3.07;;;0.40;36.40;;;;;;10361795;28;20229;-71
2024/01/16 07:15:08;;;;;;;2.93;2.63;;;0.30;36.40;;;;;;10362227;28;20234;-71
2024/01/16 07:20:12;;;;;;;2.83;2.57;;;0.30;36.50;;;;;;10365542;28;20250;-72
2024/01/16 07:25:15;;;;;;;2.80;2.60;;;0.30;36.60;;;;;;10367052;28;20234;-71
2024/01/16 07:30:20;;;;;;;3.07;2.77;;;0.30;36.80;;;;;;10366792;28;20656;-71
2024/01/16 07:35:23;;;;;;;3.20;2.90;;;0.40;36.90;;;;;;10357154;28;20693;-73
2024/01/16 07:40:26;;;;;;;4.13;3.40;;;0.50;36.90;;;;;;10347049;28;20254;-73
2024/01/16 07:45:31;;;;;;;6.47;3.90;;;0.60;36.80;;;;;;10346008;28;20321;-73
2024/01/16 07:50:34;;;;;;;6.57;4.30;;;0.70;36.70;;;;;;10350875;28;20597;-72
2024/01/16 07:55:38;;;;;;;4.57;3.13;;;0.90;36.80;;;;;;10343908;28;20233;-72
2024/01/16 08:00:43;;;;;;;7.17;3.83;;;0.90;36.50;;;;;;10346393;28;20240;-72
2024/01/16 08:05:46;;;;;;;5.23;4.07;;;1.00;36.50;;;;;;10345429;28;20230;-72
2024/01/16 08:10:49;;;;;;;14.60;8.83;;;1.00;36.80;;;;;;10346684;28;20231;-72
2024/01/16 08:15:54;;;;;;;19.83;13.67;;;1.00;36.60;;;;;;10343611;28;20317;-72
2024/01/16 08:20:57;;;;;;;11.87;9.03;;;1.00;36.50;;;;;;10344862;28;20222;-72
2024/01/16 08:26:00;;;;;;;9.13;6.13;;;0.90;36.70;;;;;;10347566;28;20280;-72
2024/01/16 08:31:05;;;;;;;5.50;4.03;;;0.90;36.80;;;;;;10344005;28;20313;-72
2024/01/16 08:36:09;;;;;;;5.00;3.57;;;0.90;36.80;;;;;;10348227;28;20237;-73
2024/01/16 08:41:12;;;;;;;4.50;3.10;;;0.90;36.80;;;;;;10341000;28;20234;-73
2024/01/16 08:46:19;;;;;;;4.20;2.80;;;0.90;36.90;;;;;;10343317;28;20717;-72
2024/01/16 08:51:23;;;;;;;3.10;2.80;;;1.00;37.10;;;;;;10342911;28;20311;-72
2024/01/16 08:56:26;;;;;;;2.73;2.40;;;1.00;37.20;;;;;;10343576;28;20226;-73
2024/01/16 09:01:30;;;;;;;3.60;2.80;;;1.10;37.20;;;;;;10342266;28;20231;-72
2024/01/16 09:06:34;;;;;;;3.53;2.67;;;1.20;37.20;;;;;;10342957;28;20230;-72
2024/01/16 09:11:37;;;;;;;3.50;3.20;;;1.30;37.20;;;;;;10347817;28;20394;-72
2024/01/16 09:16:42;;;;;;;3.33;2.40;;;1.40;37.10;;;;;;10342572;28;20234;-72
2024/01/16 09:21:45;;;;;;;4.00;3.03;;;1.50;37.10;;;;;;10343748;28;20230;-72
2024/01/16 09:26:48;;;;;;;2.73;2.50;;;1.60;37.00;;;;;;10346531;28;20257;-73
2024/01/16 09:31:54;;;;;;;3.63;2.60;;;1.80;37.00;;;;;;10339878;28;20692;-72
2024/01/16 09:36:59;;;;;;;3.20;2.83;;;1.70;36.50;;;;;;10348863;28;20222;-73
2024/01/16 09:42:02;;;;;;;2.87;2.57;;;2.00;37.10;;;;;;10351459;28;20226;-73
2024/01/16 09:47:09;;;;;;;3.20;2.87;;;2.00;37.10;;;;;;10352163;28;20242;-73
2024/01/16 09:52:13;;;;;;;3.90;3.20;;;2.00;36.90;;;;;;10351776;28;20723;-73
2024/01/16 09:57:20;;;;;;;3.83;3.03;;;2.20;37.00;;;;;;10355420;28;20724;-73
2024/01/16 10:02:25;;;;;;;4.63;2.87;;;2.30;36.90;;;;;;10349395;28;20235;-73
2024/01/16 10:07:30;;;;;;;5.33;3.80;;;2.40;36.70;;;;;;10341144;28;20234;-73
2024/01/16 10:12:34;;;;;;;3.97;3.20;;;2.50;36.80;;;;;;10351995;28;20885;-72
2024/01/16 10:17:40;;;;;;;3.20;2.83;;;2.80;37.20;;;;;;10345792;28;20586;-72
2024/01/16 10:22:53;;;;;;;5.70;3.60;;;2.80;36.80;;;;;;10348721;28;20637;-72
2024/01/16 10:28:07;;;;;;;3.93;3.07;;;3.10;36.40;;;;;;10347052;28;20226;-72
2024/01/16 10:33:16;;;;;;;5.83;3.67;;;3.20;36.30;;;;;;10344641;28;20567;-72
2024/01/16 10:38:23;;;;;;;4.80;3.17;;;3.40;36.20;;;;;;10348395;28;20233;-72
2024/01/16 10:43:27;;;;;;;3.97;2.90;;;3.60;35.60;;;;;;10342313;28;20235;-72
2024/01/16 10:48:31;;;;;;;2.73;2.53;;;3.60;36.30;;;;;;10349649;28;20248;-72
2024/01/16 10:53:35;;;;;;;3.13;2.40;;;3.70;35.70;;;;;;10346023;28;20242;-72
2024/01/16 10:58:41;;;;;;;3.83;2.33;;;3.80;36.30;;;;;;10345245;28;20498;-72
2024/01/16 11:03:49;;;;;;;2.80;2.30;;;3.90;35.90;;;;;;10344415;28;20238;-72
2024/01/16 11:08:53;;;;;;;3.13;2.50;;;4.00;35.90;;;;;;10342978;28;20238;-72
2024/01/16 11:13:57;;;;;;;2.97;2.67;;;4.10;36.10;;;;;;10342202;28;20230;-72
2024/01/16 11:19:02;;;;;;;2.53;2.20;;;4.10;35.70;;;;;;10344869;28;20620;-72
2024/01/16 11:24:25;;;;;;;3.37;2.20;;;4.10;35.50;;;;;;10342763;28;20227;-72
2024/01/16 11:29:37;;;;;;;3.37;2.50;;;4.20;35.60;;;;;;10345157;28;20234;-72
2024/01/16 11:34:57;;;;;;;4.60;2.73;;;4.20;35.00;;;;;;10342766;28;20234;-72
2024/01/16 11:40:22;;;;;;;3.43;2.73;;;4.20;35.60;;;;;;10344243;28;20222;-72
2024/01/16 11:45:53;;;;;;;3.50;2.43;;;4.30;34.90;;;;;;10335816;28;20305;-71
2024/01/16 11:50:58;;;;;;;2.60;2.40;;;4.40;35.40;;;;;;10341630;28;20230;-71
2024/01/16 11:56:20;;;;;;;2.80;2.50;;;4.60;35.70;;;;;;10342246;28;20229;-72
2024/01/16 12:01:45;;;;;;;5.00;3.93;;;4.60;34.50;;;;;;10338438;28;20269;-74
2024/01/16 12:07:00;;;;;;;3.13;2.80;;;4.60;34.80;;;;;;10338898;28;20318;-71
2024/01/16 12:12:04;;;;;;;3.70;2.57;;;4.60;34.30;;;;;;10335817;28;20234;-73
2024/01/16 12:17:12;;;;;;;7.73;4.17;;;4.60;35.10;;;;;;10337016;28;20226;-73
2024/01/16 12:22:18;;;;;;;4.17;3.13;;;4.50;34.70;;;;;;10337965;28;20229;-72
2024/01/16 12:27:21;;;;;;;5.60;2.60;;;4.50;35.60;;;;;;10335489;28;20226;-72
2024/01/16 12:32:24;;;;;;;3.60;2.87;;;4.60;35.30;;;;;;10338056;28;20238;-72
2024/01/16 12:37:29;;;;;;;6.87;2.80;;;4.60;35.40;;;;;;10333368;28;20254;-72
2024/01/16 12:42:32;;;;;;;2.53;2.33;;;4.70;35.40;;;;;;10336219;28;20774;-71
2024/01/16 12:47:36;;;;;;;3.87;2.50;;;4.80;35.20;;;;;;10334196;28;20230;-71
2024/01/16 12:52:41;;;;;;;4.37;3.33;;;4.90;34.80;;;;;;10335776;28;20242;-71
2024/01/16 12:57:45;;;;;;;7.50;4.37;;;5.00;34.50;;;;;;10332589;28;20593;-70
2024/01/16 13:02:50;;;;;;;4.10;3.60;;;4.90;34.70;;;;;;10336846;28;20270;-71
2024/01/16 13:08:05;;;;;;;4.07;3.33;;;4.90;34.30;;;;;;10337152;28;20309;-73
2024/01/16 13:13:16;;;;;;;3.73;2.93;;;4.90;33.90;;;;;;10336235;28;20292;-72
2024/01/16 13:18:21;;;;;;;3.57;2.63;;;4.90;34.00;;;;;;10332084;28;20225;-71
2024/01/16 13:23:27;;;;;;;2.57;2.33;;;4.90;34.60;;;;;;10345129;28;21270;-74
2024/01/16 13:28:30;;;;;;;4.20;2.50;;;5.00;34.50;;;;;;10349431;28;20320;-74
2024/01/16 13:33:33;;;;;;;3.20;2.57;;;5.10;34.60;;;;;;10350750;28;20581;-75
2024/01/16 13:38:38;;;;;;;4.70;2.50;;;5.10;34.50;;;;;;10353793;28;20240;-72
2024/01/16 13:43:41;;;;;;;4.10;2.33;;;5.10;34.30;;;;;;10355679;28;20752;-75
2024/01/16 13:48:45;;;;;;;2.70;2.13;;;5.20;34.60;;;;;;10355802;28;20241;-73
2024/01/16 13:53:49;;;;;;;2.43;1.80;;;5.20;34.90;;;;;;10342151;28;20230;-75
2024/01/16 13:58:53;;;;;;;2.70;2.00;;;5.30;34.00;;;;;;10336211;28;20603;-72
2024/01/16 14:03:56;;;;;;;3.20;2.20;;;5.30;34.20;;;;;;10335008;28;20321;-74
2024/01/16 14:09:00;;;;;;;2.57;2.00;;;5.30;35.20;;;;;;10336294;28;20231;-72
2024/01/16 14:14:05;;;;;;;4.10;2.00;;;5.40;34.50;;;;;;10345675;28;20277;-72
2024/01/16 14:19:08;;;;;;;3.57;1.90;;;5.40;34.30;;;;;;10346949;28;20276;-72
2024/01/16 14:24:13;;;;;;;5.23;2.10;;;5.50;34.30;;;;;;10351739;28;20238;-73
2024/01/16 14:29:16;;;;;;;3.73;1.90;;;5.50;34.20;;;;;;10344081;28;20309;-72
2024/01/16 14:34:19;;;;;;;4.07;3.10;;;5.50;34.20;;;;;;10346429;28;20607;-72
2024/01/16 14:39:25;;;;;;;8.20;6.43;;;5.50;33.90;;;;;;10339615;28;20238;-72
2024/01/16 14:44:30;;;;;;;5.23;4.70;;;5.40;33.50;;;;;;10345164;28;20233;-72
2024/01/16 14:49:34;;;;;;;4.13;3.73;;;5.40;33.80;;;;;;10345029;28;20242;-72
2024/01/16 14:54:39;;;;;;;4.33;2.60;;;5.30;36.40;;;;;;10348685;28;20316;-73
2024/01/16 14:59:42;;;;;;;3.90;2.63;;;5.30;34.40;;;;;;10348478;28;20650;-72
2024/01/16 15:04:46;;;;;;;5.10;3.10;;;5.30;34.30;;;;;;10349087;28;20292;-72
2024/01/16 15:09:51;;;;;;;4.17;3.73;;;5.30;34.30;;;;;;10351232;28;20317;-72
2024/01/16 15:14:54;;;;;;;6.37;3.40;;;5.30;34.70;;;;;;10341933;28;20264;-72
2024/01/16 15:19:57;;;;;;;3.40;3.10;;;5.30;34.10;;;;;;10340087;28;20242;-72
2024/01/16 15:25:02;;;;;;;3.63;2.80;;;5.20;34.20;;;;;;10354637;28;20744;-71
2024/01/16 15:30:08;;;;;;;2.77;2.57;;;5.30;34.20;;;;;;10335405;28;20230;-72
2024/01/16 15:35:11;;;;;;;6.13;3.50;;;5.30;34.20;;;;;;10313547;28;20227;-72
2024/01/16 15:40:16;;;;;;;5.07;2.67;;;5.30;34.30;;;;;;10319985;28;20713;-72
2024/01/16 15:45:22;;;;;;;3.20;2.47;;;5.30;34.00;;;;;;10313929;28;20246;-72
2024/01/16 15:50:29;;;;;;;4.30;2.80;;;5.40;34.20;;;;;;10320577;28;20894;-72
2024/01/16 15:55:35;;;;;;;3.77;2.90;;;5.30;34.10;;;;;;10359470;28;20226;-72
2024/01/16 16:00:38;;;;;;;3.50;2.70;;;5.30;34.00;;;;;;10354944;28;20240;-72
2024/01/16 16:05:41;;;;;;;6.10;3.20;;;5.30;34.20;;;;;;10352575;28;20234;-76
2024/01/16 16:10:47;;;;;;;6.63;2.83;;;5.30;34.30;;;;;;10356758;28;20257;-72
2024/01/16 16:15:50;;;;;;;3.97;3.43;;;5.30;34.10;;;;;;10362794;28;20365;-72
2024/01/16 16:20:53;;;;;;;4.83;3.77;;;5.30;34.30;;;;;;10355959;28;20238;-72
2024/01/16 16:25:58;;;;;;;6.23;3.87;;;5.30;34.40;;;;;;10363682;28;20242;-72
2024/01/16 16:31:01;;;;;;;6.23;3.80;;;5.30;34.30;;;;;;10364024;28;20246;-72
2024/01/16 16:36:05;;;;;;;6.63;3.87;;;5.30;34.40;;;;;;10363314;28;20577;-72
2024/01/16 16:41:10;;;;;;;7.27;4.67;;;5.30;34.50;;;;;;10359076;28;20309;-72
2024/01/16 16:46:15;;;;;;;7.23;5.13;;;5.30;34.60;;;;;;10352560;28;20317;-73
2024/01/16 16:51:19;;;;;;;7.50;4.90;;;5.30;35.00;;;;;;10355078;28;20970;-77
2024/01/16 16:56:24;;;;;;;6.20;4.83;;;5.30;35.00;;;;;;10356668;28;20610;-78
2024/01/16 17:01:27;;;;;;;6.23;4.80;;;5.30;35.50;;;;;;10360663;28;20233;-75
2024/01/16 17:06:31;;;;;;;6.27;5.23;;;5.30;35.20;;;;;;10362045;28;20317;-76
2024/01/16 17:11:35;;;;;;;5.53;4.60;;;5.30;35.00;;;;;;10359382;28;20226;-75
2024/01/16 17:16:40;;;;;;;7.30;4.33;;;5.30;34.80;;;;;;10357674;28;20250;-75
2024/01/16 17:21:43;;;;;;;7.47;6.03;;;5.40;35.00;;;;;;10364565;28;20317;-77
2024/01/16 17:26:48;;;;;;;9.10;5.77;;;5.40;34.80;;;;;;10360010;28;20258;-76
2024/01/16 17:31:51;;;;;;;7.70;5.13;;;5.40;34.80;;;;;;10363128;28;20234;-75
2024/01/16 17:36:55;;;;;;;8.93;5.63;;;5.40;34.70;;;;;;10359530;28;20218;-77
2024/01/16 17:41:59;;;;;;;7.03;5.87;;;5.30;34.60;;;;;;10360281;28;20235;-77
2024/01/16 17:47:03;;;;;;;8.70;5.90;;;5.30;34.50;;;;;;10359485;28;20591;-77
2024/01/16 17:52:09;;;;;;;7.13;5.43;;;5.30;34.60;;;;;;10355515;28;20234;-76
2024/01/16 17:57:14;;;;;;;8.23;6.10;;;5.20;34.50;;;;;;10355955;28;20227;-76
2024/01/16 18:02:17;;;;;;;5.83;5.20;;;5.20;34.40;;;;;;10357676;28;20321;-76
2024/01/16 18:07:20;;;;;;;6.77;5.27;;;5.20;34.50;;;;;;10353656;28;20297;-76
2024/01/16 18:12:27;;;;;;;5.83;5.07;;;5.10;34.30;;;;;;10345811;28;20447;-76
2024/01/16 18:17:30;;;;;;;8.40;6.17;;;5.10;34.20;;;;;;10354534;28;20230;-75
2024/01/16 18:22:33;;;;;;;10.07;8.30;;;5.00;34.20;;;;;;10355957;28;20230;-77
2024/01/16 18:27:38;;;;;;;13.27;10.17;;;4.90;34.10;;;;;;10361242;28;20313;-76
2024/01/16 18:32:42;;;;;;;10.20;8.77;;;4.80;34.00;;;;;;10357578;28;20230;-75
2024/01/16 18:37:46;;;;;;;8.97;7.80;;;4.70;34.10;;;;;;10358067;28;20305;-76
2024/01/16 18:42:51;;;;;;;9.43;7.60;;;4.70;34.10;;;;;;10356237;28;20265;-74
2024/01/16 18:47:55;;;;;;;13.53;8.70;;;4.60;33.80;;;;;;10362120;28;20228;-76
2024/01/16 18:52:58;;;;;;;15.30;10.97;;;4.50;33.80;;;;;;10353468;28;20326;-77
2024/01/16 18:58:04;;;;;;;18.17;11.70;;;4.40;33.90;;;;;;10340902;28;20302;-74
2024/01/16 19:03:07;;;;;;;14.23;11.57;;;4.40;33.80;;;;;;10344303;28;20311;-75
2024/01/16 19:08:11;;;;;;;14.70;10.30;;;4.30;33.80;;;;;;10343951;28;20230;-75
2024/01/16 19:13:15;;;;;;;14.83;11.27;;;4.20;33.80;;;;;;10341736;28;20233;-74
2024/01/16 19:18:19;;;;;;;15.33;11.27;;;4.10;33.60;;;;;;10344715;28;20222;-74
2024/01/16 19:23:23;;;;;;;20.67;14.43;;;4.10;33.80;;;;;;10345534;28;20295;-75
2024/01/16 19:28:31;;;;;;;25.63;19.37;;;4.00;33.60;;;;;;10347524;28;20304;-75
2024/01/16 19:33:34;;;;;;;21.37;14.93;;;3.80;33.40;;;;;;10347241;28;20230;-76
2024/01/16 19:38:37;;;;;;;18.33;11.70;;;3.70;33.50;;;;;;10345185;28;20219;-73
2024/01/16 19:43:42;;;;;;;14.67;10.17;;;3.80;33.60;;;;;;10348248;28;20234;-74
2024/01/16 19:48:45;;;;;;;11.43;8.50;;;3.50;33.40;;;;;;10343555;28;20227;-74
2024/01/16 19:53:49;;;;;;;9.93;8.10;;;3.50;33.50;;;;;;10351249;28;20225;-75
2024/01/16 19:58:57;;;;;;;8.10;6.57;;;3.40;33.40;;;;;;10357467;28;20234;-76
2024/01/16 20:04:01;;;;;;;10.60;8.27;;;3.30;33.50;;;;;;10355311;28;20232;-76
2024/01/16 20:09:05;;;;;;;9.10;6.93;;;3.20;33.60;;;;;;10361352;28;20333;-74
2024/01/16 20:14:10;;;;;;;7.97;6.30;;;3.30;34.20;;;;;;10361771;28;20234;-75
2024/01/16 20:19:14;;;;;;;9.20;7.20;;;3.20;34.00;;;;;;10358644;28;20338;-76
2024/01/16 20:24:18;;;;;;;13.90;9.30;;;3.10;33.90;;;;;;10351005;28;20226;-76
2024/01/16 20:29:22;;;;;;;13.07;9.47;;;3.00;33.80;;;;;;10350863;28;20691;-74
2024/01/16 20:34:26;;;;;;;14.60;9.97;;;3.00;33.50;;;;;;10349752;28;20233;-74
2024/01/16 20:39:29;;;;;;;24.57;14.13;;;2.90;33.50;;;;;;10348325;28;20218;-73
2024/01/16 20:44:33;;;;;;;48.90;26.20;;;2.80;33.30;;;;;;10342477;28;20230;-75
2024/01/16 20:49:37;;;;;;;35.90;19.87;;;2.80;33.30;;;;;;10342444;28;20241;-74
2024/01/16 20:54:40;;;;;;;29.60;17.07;;;2.60;33.30;;;;;;10340620;28;20730;-75
2024/01/16 20:59:45;;;;;;;18.67;12.50;;;2.60;33.50;;;;;;10339829;28;20246;-73
2024/01/16 21:04:48;;;;;;;16.33;11.87;;;2.50;33.40;;;;;;10332560;28;20234;-75
2024/01/16 21:09:52;;;;;;;16.17;11.27;;;2.40;33.10;;;;;;10334077;28;20239;-75
2024/01/16 21:14:56;;;;;;;12.63;9.80;;;2.20;33.10;;;;;;10341461;28;20250;-75
2024/01/16 21:20:00;;;;;;;15.33;10.63;;;1.80;33.40;;;;;;10343295;28;20225;-73
2024/01/16 21:25:04;;;;;;;14.80;11.13;;;1.70;34.00;;;;;;10341608;28;20292;-74
2024/01/16 21:30:10;;;;;;;14.00;9.70;;;1.60;34.00;;;;;;10331384;28;20246;-75
2024/01/16 21:35:14;;;;;;;11.80;8.73;;;1.60;34.00;;;;;;10345653;28;20669;-75
2024/01/16 21:40:18;;;;;;;11.67;8.63;;;1.60;34.00;;;;;;10347882;28;20245;-75
2024/01/16 21:45:23;;;;;;;14.23;9.40;;;1.60;34.00;;;;;;10339977;28;20231;-76
2024/01/16 21:50:26;;;;;;;13.37;9.83;;;1.60;34.00;;;;;;10352878;28;21234;-75
2024/01/16 21:55:40;;;;;;;16.03;9.93;;;1.60;34.00;;;;;;10335878;28;20321;-74
2024/01/16 22:00:44;;;;;;;14.63;9.33;;;1.50;33.90;;;;;;10343695;28;20226;-75
2024/01/16 22:05:48;;;;;;;12.20;8.77;;;1.50;33.90;;;;;;10340489;28;20234;-74
2024/01/16 22:10:51;;;;;;;12.33;9.33;;;1.50;33.90;;;;;;10346698;28;20269;-75
2024/01/16 22:15:56;;;;;;;12.20;9.67;;;1.40;33.80;;;;;;10343574;28;20270;-74
2024/01/16 22:21:01;;;;;;;12.30;9.77;;;1.40;33.80;;;;;;10343982;28;20234;-74
2024/01/16 22:26:06;;;;;;;13.10;9.93;;;1.50;33.90;;;;;;10335987;28;20223;-74
2024/01/16 22:31:10;;;;;;;15.73;10.77;;;1.30;33.60;;;;;;10349000;28;20237;-74
2024/01/16 22:36:14;;;;;;;16.17;9.67;;;1.00;33.50;;;;;;10348781;28;20249;-74
2024/01/16 22:41:17;;;;;;;13.87;9.43;;;0.90;33.40;;;;;;10341260;28;20267;-74
2024/01/16 22:46:22;;;;;;;13.47;9.30;;;0.70;33.50;;;;;;10344049;28;20227;-75
2024/01/16 22:51:25;;;;;;;12.27;8.73;;;0.70;33.70;;;;;;10342541;28;20326;-74
2024/01/16 22:56:28;;;;;;;9.80;7.03;;;0.70;33.70;;;;;;10343892;28;20222;-75
2024/01/16 23:01:33;;;;;;;14.47;9.50;;;0.70;33.80;;;;;;10348258;28;20722;-75
2024/01/16 23:06:36;;;;;;;11.47;8.47;;;0.70;33.70;;;;;;10346770;28;20321;-75
2024/01/16 23:11:39;;;;;;;11.43;7.30;;;0.70;33.60;;;;;;10349050;28;20642;-74
2024/01/16 23:16:44;;;;;;;22.23;12.13;;;0.60;33.20;;;;;;10355487;28;20234;-75
2024/01/16 23:21:47;;;;;;;20.90;12.50;;;0.50;33.30;;;;;;10350872;28;20238;-74
2024/01/16 23:26:51;;;;;;;22.27;11.93;;;0.30;33.80;;;;;;10352022;28;20227;-75
2024/01/16 23:31:55;;;;;;;17.33;11.77;;;0.20;33.90;;;;;;10348385;28;20282;-75
2024/01/16 23:36:59;;;;;;;12.83;9.33;;;0.30;34.00;;;;;;10350382;28;20288;-75
2024/01/16 23:42:02;;;;;;;13.23;9.03;;;0.30;33.90;;;;;;10351251;28;20727;-75
2024/01/16 23:47:07;;;;;;;12.27;8.60;;;0.30;34.00;;;;;;10348263;28;20776;-74
2024/01/16 23:52:13;;;;;;;16.73;10.57;;;0.30;34.00;;;;;;10349551;28;20236;-75
2024/01/16 23:57:16;;;;;;;13.27;8.80;;;0.30;34.00;;;;;;10345043;28;20226;-75
